createdAt,value
2022-12-12T04:11:51.128Z,702.90
2022-12-12T04:15:17.745Z,821.13
2022-12-12T04:18:37.014Z,812.80
2022-12-12T04:22:07.390Z,792.73
2022-12-12T04:25:27.948Z,756.60
2022-12-12T04:28:41.875Z,701.07
2022-12-12T04:31:57.595Z,760.47
2022-12-12T04:35:13.852Z,702.33
2022-12-12T04:38:26.090Z,673.40
2022-12-12T04:41:40.031Z,716.17
2022-12-12T04:44:53.646Z,713.33
2022-12-12T04:48:06.769Z,843.00
2022-12-12T04:51:19.940Z,727.50
2022-12-12T04:54:39.498Z,741.73
2022-12-12T04:57:55.029Z,716.87
2022-12-12T05:01:10.855Z,740.23
2022-12-12T05:04:25.788Z,755.93
2022-12-12T05:07:40.238Z,727.63
2022-12-12T05:10:53.318Z,738.37
2022-12-12T05:14:02.947Z,735.43
2022-12-12T05:17:18.193Z,736.97
2022-12-12T05:20:27.881Z,703.70
2022-12-12T05:23:37.577Z,693.00
2022-12-12T05:26:47.208Z,738.40
2022-12-12T05:29:56.861Z,757.87
2022-12-12T05:33:07.743Z,730.40
2022-12-12T05:36:17.895Z,714.73
2022-12-12T05:39:27.554Z,751.00
2022-12-12T05:42:37.267Z,734.30
2022-12-12T05:45:47.280Z,753.03
2022-12-12T05:48:58.400Z,749.63
2022-12-12T05:52:08.325Z,788.17
2022-12-12T05:55:18.245Z,757.03
2022-12-12T05:58:27.910Z,748.23
2022-12-12T08:07:59.256Z,803.30
2022-12-12T08:11:10.866Z,840.17
2022-12-12T08:14:20.576Z,736.03
2022-12-12T08:17:30.293Z,748.97
2022-12-12T08:20:40.755Z,735.67
2022-12-12T08:23:51.879Z,727.30
2022-12-12T08:27:01.520Z,776.43
2022-12-12T08:30:11.951Z,719.53
2022-12-12T08:33:21.827Z,752.13
2022-12-12T08:36:34.799Z,765.27
2022-12-12T08:39:45.824Z,765.00
2022-12-12T08:42:55.591Z,782.70
2022-12-12T08:46:06.681Z,781.53
2022-12-12T08:49:17.123Z,777.50
2022-12-12T08:52:26.750Z,764.73
2022-12-12T08:55:37.692Z,771.67
2022-12-12T08:58:47.713Z,759.13
2022-12-12T09:01:57.656Z,745.03
2022-12-12T09:05:08.125Z,757.07
2022-12-12T09:08:18.060Z,778.43
2022-12-12T09:11:29.916Z,781.53
2022-12-12T09:14:39.665Z,759.43
2022-12-12T09:17:49.321Z,764.87
2022-12-12T09:21:00.051Z,748.47
2022-12-12T09:24:10.074Z,772.23
2022-12-12T09:27:21.076Z,755.57
2022-12-12T09:30:30.709Z,720.60
2022-12-12T09:33:42.860Z,714.27
2022-12-12T09:36:52.624Z,716.17
2022-12-12T09:40:02.365Z,764.30
2022-12-12T09:43:17.125Z,742.00
2022-12-12T09:46:35.386Z,713.27
2022-12-12T09:49:49.800Z,642.60
2022-12-12T09:53:04.107Z,609.37
2022-12-12T09:56:21.005Z,593.70
2022-12-12T09:59:41.545Z,649.07
2022-12-12T10:03:07.879Z,584.23
2022-12-12T10:06:37.562Z,586.87
2022-12-12T10:09:58.590Z,530.00
2022-12-12T10:13:15.849Z,524.93
2022-12-12T10:16:29.651Z,573.33
2022-12-12T10:19:47.208Z,527.77
2022-12-12T10:23:03.012Z,504.57
2022-12-12T10:26:17.506Z,540.57
2022-12-12T10:29:28.445Z,525.10
2022-12-12T10:32:49.768Z,556.80
2022-12-12T10:36:07.473Z,570.90
2022-12-12T10:39:25.235Z,560.03
2022-12-12T10:42:42.164Z,562.97
2022-12-12T10:46:07.743Z,501.53
2022-12-12T10:49:21.299Z,535.73
2022-12-12T10:52:30.972Z,558.60
2022-12-12T10:55:47.748Z,506.17
2022-12-12T10:58:59.083Z,480.23
2022-12-12T11:02:26.206Z,509.43
2022-12-12T11:05:40.053Z,529.83
2022-12-12T11:08:54.968Z,553.07
2022-12-12T11:12:14.067Z,504.10
2022-12-12T11:15:30.480Z,500.50
2022-12-12T11:18:40.387Z,554.13
2022-12-12T11:21:52.961Z,490.87
2022-12-12T11:25:02.647Z,526.10
2022-12-12T11:28:22.530Z,514.17
2022-12-12T11:31:34.829Z,516.07
2022-12-12T11:34:48.215Z,555.77
2022-12-12T11:38:04.305Z,531.87
2022-12-12T11:41:14.129Z,581.43
2022-12-12T11:44:25.735Z,640.90
2022-12-12T11:47:40.867Z,623.67
2022-12-12T11:50:50.634Z,526.73
2022-12-12T11:54:02.610Z,561.20
2022-12-12T11:57:17.841Z,613.27
2022-12-12T12:00:38.963Z,526.30
2022-12-12T12:04:09.032Z,585.70
2022-12-12T12:07:34.319Z,587.97
2022-12-12T12:11:01.145Z,644.50
2022-12-12T12:14:27.010Z,553.27
2022-12-12T12:17:58.806Z,539.90
2022-12-12T12:21:24.027Z,499.67
2022-12-12T12:24:49.910Z,530.73
2022-12-12T12:28:22.977Z,561.97
2022-12-12T12:31:45.318Z,595.30
2022-12-12T12:35:09.117Z,569.43
2022-12-12T12:38:26.853Z,560.50
2022-12-12T12:41:50.463Z,528.37
2022-12-12T12:45:08.575Z,561.20
2022-12-12T12:48:22.655Z,521.50
2022-12-12T12:51:37.613Z,588.83
2022-12-12T12:54:49.219Z,581.47
2022-12-12T12:58:01.884Z,578.60
2022-12-12T13:01:17.409Z,536.07
2022-12-12T13:04:32.733Z,546.80
2022-12-12T13:07:49.398Z,549.67
2022-12-12T13:11:05.044Z,587.97
2022-12-12T13:14:20.167Z,604.43
2022-12-12T13:17:43.166Z,563.20
2022-12-12T13:20:58.112Z,553.77
2022-12-12T13:24:18.292Z,559.00
2022-12-12T13:27:32.705Z,537.97
2022-12-12T13:30:59.714Z,599.33
2022-12-12T13:34:16.884Z,674.13
2022-12-12T13:37:27.582Z,585.30
2022-12-12T13:40:41.362Z,623.30
2022-12-12T13:43:57.069Z,653.77
2022-12-12T13:47:13.891Z,706.27
2022-12-12T13:50:25.006Z,656.80
2022-12-12T13:53:34.752Z,587.03
2022-12-12T13:56:45.774Z,659.23
2022-12-12T14:00:21.351Z,668.53
2022-12-12T14:03:31.718Z,643.23
2022-12-12T14:06:43.152Z,678.67
2022-12-12T14:09:57.094Z,727.57
2022-12-12T14:13:19.470Z,748.30
2022-12-12T14:16:29.768Z,717.40
2022-12-12T14:19:40.172Z,764.20
2022-12-12T14:23:11.573Z,763.27
2022-12-12T14:26:45.014Z,746.20
2022-12-12T14:29:54.884Z,744.83
2022-12-12T14:33:18.115Z,755.53
2022-12-12T14:36:56.819Z,764.23
2022-12-12T14:40:19.673Z,767.07
2022-12-12T14:43:35.725Z,757.17
2022-12-12T14:46:45.457Z,735.17
2022-12-12T14:50:11.696Z,763.90
2022-12-12T14:53:24.666Z,782.33
2022-12-12T14:56:40.521Z,772.40
2022-12-12T14:59:51.660Z,782.57
2022-12-12T15:03:01.661Z,802.43
2022-12-12T15:06:27.637Z,801.10
2022-12-12T15:09:38.886Z,779.67
2022-12-12T15:12:49.949Z,777.77
2022-12-12T15:15:59.641Z,810.60
2022-12-12T15:19:15.077Z,782.87
2022-12-12T15:22:28.064Z,813.50
2022-12-12T15:25:42.208Z,812.70
2022-12-12T15:28:53.414Z,818.53
2022-12-12T15:32:06.182Z,725.47
2022-12-12T15:35:20.994Z,811.43
2022-12-12T15:38:31.437Z,779.17
2022-12-12T15:41:41.606Z,808.67
2022-12-12T15:44:53.248Z,815.60
2022-12-12T15:48:04.168Z,797.23
2022-12-12T15:51:18.337Z,830.10
2022-12-12T15:54:30.927Z,756.77
2022-12-12T15:57:46.882Z,776.43
2022-12-12T16:01:06.624Z,749.43
2022-12-12T16:04:25.858Z,843.13
2022-12-12T16:07:37.829Z,834.07
2022-12-12T16:10:53.250Z,815.77
2022-12-12T16:14:03.234Z,834.50
2022-12-12T16:17:19.370Z,801.67
2022-12-12T16:20:30.679Z,805.20
2022-12-12T16:23:42.490Z,787.30
2022-12-12T16:26:52.647Z,835.67
2022-12-12T16:30:02.536Z,803.63
2022-12-12T16:33:23.871Z,828.13
2022-12-12T16:36:39.894Z,835.33
2022-12-12T16:39:51.466Z,853.33
2022-12-12T16:43:10.760Z,826.63
2022-12-12T16:46:23.015Z,846.57
2022-12-12T16:49:34.630Z,835.97
2022-12-12T16:52:44.350Z,807.47
2022-12-12T16:55:55.046Z,833.77
2022-12-12T16:59:04.693Z,836.83
2022-12-12T17:02:19.829Z,848.50
2022-12-12T17:05:32.467Z,841.93
2022-12-12T17:08:42.198Z,829.33
2022-12-12T17:11:51.870Z,871.07
2022-12-12T17:15:01.618Z,864.60
2022-12-12T17:18:11.919Z,869.17
2022-12-12T17:21:23.118Z,899.00
2022-12-12T17:24:32.855Z,870.90
2022-12-12T17:27:42.979Z,875.10
2022-12-12T17:30:53.680Z,862.00
2022-12-12T17:34:04.392Z,865.77
2022-12-12T17:37:15.479Z,977.33
2022-12-12T17:40:25.240Z,891.30
2022-12-12T17:43:35.305Z,915.07
2022-12-12T17:46:45.231Z,910.77
2022-12-12T17:49:54.953Z,902.10
2022-12-12T17:53:06.160Z,903.33
2022-12-12T17:56:17.925Z,871.53
2022-12-12T17:59:27.810Z,879.87
2022-12-12T18:02:40.007Z,935.63
2022-12-12T18:05:49.632Z,910.00
2022-12-12T18:09:01.186Z,925.93
2022-12-12T18:12:10.960Z,915.37
2022-12-12T18:15:20.681Z,894.07
2022-12-12T18:18:32.323Z,988.77
2022-12-12T18:25:13.053Z,970.60
2022-12-12T18:28:22.799Z,931.10
2022-12-12T18:31:33.544Z,936.77
2022-12-12T18:34:43.382Z,896.37
2022-12-12T18:37:53.031Z,922.83
2022-12-12T18:41:05.302Z,884.97
2022-12-12T18:44:16.428Z,936.10
2022-12-12T18:47:26.306Z,938.73
2022-12-12T18:50:36.331Z,971.83
2022-12-12T18:53:47.629Z,964.90
2022-12-12T18:56:58.774Z,968.53
2022-12-12T19:00:10.265Z,971.07
2022-12-12T19:03:20.354Z,978.97
2022-12-12T19:06:34.204Z,981.67
2022-12-12T19:09:46.243Z,964.67
2022-12-12T19:12:57.384Z,949.73
2022-12-12T19:16:09.025Z,918.13
2022-12-12T19:19:18.933Z,930.63
2022-12-12T19:22:45.961Z,926.47
2022-12-12T19:25:56.665Z,941.70
2022-12-12T19:29:11.044Z,971.07
2022-12-12T19:32:23.018Z,966.93
2022-12-12T19:35:36.788Z,962.73
2022-12-12T19:38:47.603Z,956.13
2022-12-12T19:41:57.500Z,929.73
2022-12-12T19:45:10.085Z,926.87
2022-12-12T19:48:20.173Z,950.90
2022-12-12T19:51:32.669Z,961.67
2022-12-12T19:54:43.554Z,967.03
2022-12-12T19:57:53.873Z,981.53
2022-12-12T20:01:10.123Z,980.77
2022-12-12T20:04:22.913Z,974.27
2022-12-12T20:07:33.538Z,932.63
2022-12-12T20:10:44.167Z,969.87
2022-12-12T20:13:56.062Z,927.73
2022-12-12T20:17:07.310Z,954.10
2022-12-12T20:20:17.479Z,924.93
2022-12-12T20:23:27.436Z,923.27
2022-12-12T20:26:39.693Z,941.60
2022-12-12T20:29:50.789Z,924.20
2022-12-12T20:33:02.402Z,957.37
2022-12-12T20:36:14.596Z,951.53
2022-12-12T20:39:25.763Z,915.03
2022-12-12T20:42:35.441Z,918.60
2022-12-12T20:45:45.135Z,941.60
2022-12-12T20:48:57.945Z,904.50
2022-12-12T20:52:07.630Z,915.00
2022-12-12T20:55:17.917Z,914.93
2022-12-12T20:58:27.590Z,963.50
2022-12-12T21:01:38.032Z,967.67
2022-12-12T21:04:49.915Z,968.20
2022-12-12T21:07:59.671Z,971.83
2022-12-12T21:11:10.315Z,947.10
2022-12-12T21:14:20.128Z,898.03
2022-12-12T21:17:30.248Z,914.37
2022-12-12T21:20:44.813Z,920.40
2022-12-12T21:23:55.469Z,902.80
2022-12-12T21:27:05.180Z,940.70
2022-12-12T21:30:14.899Z,918.17
2022-12-12T21:33:26.019Z,896.47
2022-12-12T21:36:37.053Z,929.63
2022-12-12T21:39:50.690Z,918.23
2022-12-12T21:43:00.463Z,941.00
2022-12-12T21:46:13.546Z,916.33
2022-12-12T21:49:27.789Z,896.23
2022-12-12T21:52:41.255Z,912.17
2022-12-12T21:55:50.896Z,896.13
2022-12-12T21:59:01.012Z,906.80
2022-12-12T22:02:13.635Z,918.73
2022-12-12T22:05:23.880Z,920.17
2022-12-12T22:08:34.830Z,931.43
2022-12-12T22:11:49.256Z,945.63
2022-12-12T22:15:01.994Z,949.60
2022-12-12T22:18:11.693Z,918.47
2022-12-12T22:21:22.822Z,941.90
2022-12-12T22:24:33.884Z,938.33
2022-12-12T22:27:43.612Z,927.40
2022-12-12T22:30:53.413Z,921.63
2022-12-12T22:34:05.147Z,912.50
2022-12-12T22:37:14.924Z,914.80
2022-12-12T22:40:25.868Z,932.77
2022-12-12T22:43:36.404Z,913.63
2022-12-12T22:46:47.695Z,927.37
2022-12-12T22:49:57.413Z,924.87
2022-12-12T22:53:07.044Z,914.93
2022-12-12T22:56:18.474Z,902.47
2022-12-12T22:59:28.156Z,951.60
2022-12-12T23:02:38.031Z,887.37
2022-12-12T23:05:47.828Z,949.20
2022-12-12T23:08:59.162Z,908.03
2022-12-12T23:12:10.182Z,889.80
2022-12-12T23:15:20.013Z,880.53
2022-12-12T23:18:29.656Z,885.60
2022-12-12T23:21:39.422Z,892.63
2022-12-12T23:24:49.108Z,873.37
2022-12-12T23:28:00.006Z,910.33
